Time;durP1;ratioP1;P1;durP2;ratioP2;P2;SDS_P1;SDS_P2;PMS_P1;PMS_P2;Temp;Humidity;BMP_temperature;BMP_pressure;BME280_temperature;BME280_humidity;BME280_pressure;Samples;Min_cycle;Max_cycle;Signal;HPM_P1;HPM_P2
2021/03/11 00:02:17;;;;;;;36.03;19.17;;;;;;;6.03;100.00;99685.41;4967938;28;20035;-57
2021/03/11 00:04:45;;;;;;;38.90;20.55;;;;;;;6.06;100.00;99678.97;4968934;28;20142;-56
2021/03/11 00:07:13;;;;;;;38.78;21.10;;;;;;;6.08;100.00;99678.78;4967341;28;20074;-56
2021/03/11 00:09:40;;;;;;;41.05;21.60;;;;;;;6.13;100.00;99661.41;4968983;28;20051;-56
2021/03/11 00:12:08;;;;;;;47.90;22.48;;;;;;;6.15;100.00;99640.88;4967135;28;20039;-53
2021/03/11 00:14:36;;;;;;;37.65;21.42;;;;;;;6.23;100.00;99632.09;4969794;28;20043;-55
2021/03/11 00:17:03;;;;;;;46.80;23.52;;;;;;;6.22;100.00;99656.13;4967633;28;20058;-56
2021/03/11 00:19:30;;;;;;;39.67;20.27;;;;;;;6.30;100.00;99630.44;4970036;28;20042;-56
2021/03/11 00:21:58;;;;;;;43.25;22.25;;;;;;;6.37;100.00;99622.69;4970127;28;20039;-56
2021/03/11 00:24:25;;;;;;;38.97;18.27;;;;;;;6.45;100.00;99620.03;4969036;28;20039;-56
2021/03/11 00:26:52;;;;;;;36.53;20.48;;;;;;;6.43;100.00;99627.31;4967837;28;20061;-55
2021/03/11 00:29:19;;;;;;;39.13;21.23;;;;;;;6.50;100.00;99624.84;4968145;28;20053;-57
2021/03/11 00:31:46;;;;;;;35.15;19.27;;;;;;;6.57;100.00;99617.88;4969431;28;20043;-56
2021/03/11 00:34:13;;;;;;;35.10;18.48;;;;;;;6.57;100.00;99607.25;4967310;28;20138;-56
2021/03/11 00:36:40;;;;;;;40.65;21.55;;;;;;;6.55;100.00;99628.66;4966982;28;20054;-57
2021/03/11 00:39:08;;;;;;;36.95;20.65;;;;;;;6.58;100.00;99605.41;4967274;28;20042;-57
2021/03/11 00:41:35;;;;;;;41.63;21.73;;;;;;;6.57;100.00;99609.91;4967748;28;20426;-55
2021/03/11 00:44:02;;;;;;;40.95;20.40;;;;;;;6.67;100.00;99601.78;4972113;28;20428;-57
2021/03/11 00:46:29;;;;;;;41.55;22.27;;;;;;;6.67;100.00;99581.38;4967521;28;20074;-57
2021/03/11 00:48:56;;;;;;;38.53;20.35;;;;;;;6.68;100.00;99591.00;4969346;28;20568;-57
2021/03/11 00:51:23;;;;;;;44.38;22.08;;;;;;;6.70;100.00;99585.53;4966839;28;20051;-58
2021/03/11 00:53:53;;;;;;;36.33;18.90;;;;;;;6.70;100.00;99566.94;4966616;28;20070;-52
2021/03/11 00:56:21;;;;;;;42.42;22.33;;;;;;;6.72;100.00;99572.94;4965392;28;20034;-53
2021/03/11 00:58:48;;;;;;;39.20;20.08;;;;;;;6.74;100.00;99560.31;4970023;28;20054;-53
2021/03/11 01:01:15;;;;;;;43.85;21.67;;;;;;;6.71;100.00;99563.31;4968916;28;20051;-54
2021/03/11 01:03:42;;;;;;;45.58;21.63;;;;;;;6.70;100.00;99572.25;4969250;28;20046;-54
2021/03/11 01:06:09;;;;;;;38.25;21.27;;;;;;;6.69;100.00;99566.13;4966779;28;20054;-53
2021/03/11 01:08:36;;;;;;;40.60;19.65;;;;;;;6.71;100.00;99563.31;4965780;28;20040;-52
2021/03/11 01:11:03;;;;;;;39.25;20.15;;;;;;;6.72;100.00;99562.31;4968781;28;20047;-53
2021/03/11 01:13:31;;;;;;;40.08;20.42;;;;;;;6.74;100.00;99559.50;4965727;28;20051;-55
2021/03/11 01:15:59;;;;;;;44.30;20.63;;;;;;;6.75;100.00;99539.91;4967434;28;20050;-53
2021/03/11 01:18:26;;;;;;;39.22;19.35;;;;;;;6.80;100.00;99537.56;4964570;28;20071;-54
2021/03/11 01:20:53;;;;;;;37.33;19.90;;;;;;;6.85;100.00;99557.31;4966628;28;20042;-52
2021/03/11 01:23:20;;;;;;;36.65;18.50;;;;;;;6.92;100.00;99541.53;4948217;28;20066;-54
2021/03/11 01:25:48;;;;;;;41.30;21.98;;;;;;;6.90;100.00;99548.81;4967934;28;20324;-57
2021/03/11 01:28:14;;;;;;;38.83;21.50;;;;;;;6.89;100.00;99555.97;4964510;28;20049;-57
2021/03/11 01:30:42;;;;;;;35.70;19.98;;;;;;;6.94;100.00;99530.75;4967374;28;20065;-57
2021/03/11 01:33:09;;;;;;;41.00;21.60;;;;;;;6.88;100.00;99550.84;4965422;28;20050;-56
2021/03/11 01:35:36;;;;;;;43.40;21.58;;;;;;;6.92;100.00;99538.03;4966575;28;20043;-56
2021/03/11 01:38:05;;;;;;;38.30;19.83;;;;;;;6.89;100.00;99550.66;4961221;28;20051;-57
2021/03/11 01:40:33;;;;;;;39.08;20.50;;;;;;;6.93;100.00;99526.44;4966258;28;20057;-57
2021/03/11 01:43:00;;;;;;;39.38;20.88;;;;;;;6.98;100.00;99524.09;4967249;28;20062;-56
2021/03/11 01:45:27;;;;;;;43.15;26.35;;;;;;;6.94;100.00;99509.50;4968563;28;20055;-57
2021/03/11 01:47:55;;;;;;;37.05;19.95;;;;;;;6.98;100.00;99505.53;4964657;28;20450;-57
2021/03/11 01:50:22;;;;;;;37.80;19.25;;;;;;;6.99;100.00;99488.56;4967512;28;20043;-57
2021/03/11 01:52:50;;;;;;;35.55;18.80;;;;;;;7.05;100.00;99493.22;4966152;28;20065;-57
2021/03/11 01:55:18;;;;;;;37.67;18.65;;;;;;;7.06;100.00;99500.19;4966564;28;20042;-56
2021/03/11 01:57:46;;;;;;;32.45;19.27;;;;;;;7.09;100.00;99489.22;4964528;28;20335;-57
2021/03/11 02:00:15;;;;;;;33.78;18.90;;;;;;;7.14;100.00;99478.06;4963857;28;20042;-56
2021/03/11 02:02:43;;;;;;;32.50;16.48;;;;;;;7.17;100.00;99469.75;4968229;28;20062;-56
2021/03/11 02:05:13;;;;;;;33.25;16.33;;;;;;;7.11;100.00;99475.75;4965573;28;20462;-57
2021/03/11 02:07:41;;;;;;;33.15;17.23;;;;;;;7.08;100.00;99450.38;4965150;28;20347;-57
2021/03/11 02:10:10;;;;;;;36.08;18.15;;;;;;;7.08;100.00;99450.38;4964644;28;20050;-57
2021/03/11 02:12:40;;;;;;;36.60;17.40;;;;;;;7.06;100.00;99452.41;4965853;28;20046;-57
2021/03/11 02:15:12;;;;;;;33.13;17.05;;;;;;;7.07;100.00;99430.13;4965210;28;20499;-54
2021/03/11 02:17:41;;;;;;;32.58;17.23;;;;;;;7.07;100.00;99432.78;4962691;28;20057;-51
2021/03/11 02:20:26;;;;;;;33.28;16.58;;;;;;;7.14;100.00;99447.03;4967595;28;20749;-52
2021/03/11 02:23:08;;;;;;;31.70;16.27;;;;;;;7.12;100.00;99434.94;4964576;28;20070;-51
2021/03/11 02:25:44;;;;;;;35.38;17.80;;;;;;;7.11;100.00;99412.88;4969001;28;20288;-52
2021/03/11 02:28:13;;;;;;;33.53;17.02;;;;;;;7.15;100.00;99430.09;4964758;28;20059;-52
2021/03/11 02:30:42;;;;;;;33.75;17.77;;;;;;;7.19;100.00;99420.78;4964111;28;20055;-53
2021/03/11 02:33:10;;;;;;;29.17;17.70;;;;;;;7.20;100.00;99389.75;4966283;28;20042;-55
2021/03/11 02:35:38;;;;;;;30.00;15.85;;;;;;;7.29;100.00;99382.56;4967469;28;20053;-54
2021/03/11 02:38:06;;;;;;;28.05;15.95;;;;;;;7.22;100.00;99362.00;4965095;28;20042;-54
2021/03/11 02:40:34;;;;;;;28.33;15.30;;;;;;;7.29;100.00;99398.50;4963002;28;20047;-54
2021/03/11 02:43:04;;;;;;;26.58;14.10;;;;;;;7.34;100.00;99381.03;4966294;28;20130;-53
2021/03/11 02:45:32;;;;;;;30.67;16.20;;;;;;;7.32;100.00;99382.22;4967609;28;20043;-53
2021/03/11 02:48:02;;;;;;;26.52;14.45;;;;;;;7.41;100.00;99373.16;4961732;28;20051;-51
2021/03/11 02:50:30;;;;;;;25.55;13.95;;;;;;;7.45;100.00;99363.84;4966713;28;20086;-55
2021/03/11 02:52:57;;;;;;;25.45;14.25;;;;;;;7.42;100.00;99364.19;4967138;28;20431;-52
2021/03/11 02:55:30;;;;;;;26.77;15.07;;;;;;;7.41;100.00;99370.50;4966286;28;20797;-53
2021/03/11 02:57:57;;;;;;;25.15;14.20;;;;;;;7.49;100.00;99335.91;4966483;28;20173;-53
2021/03/11 03:00:25;;;;;;;24.52;13.77;;;;;;;7.52;100.00;99314.31;4968589;28;20082;-54
2021/03/11 03:02:53;;;;;;;25.00;12.45;;;;;;;7.65;100.00;99334.13;4966074;28;20043;-54
2021/03/11 03:05:22;;;;;;;26.23;13.57;;;;;;;7.64;100.00;99337.78;4967087;28;20062;-53
2021/03/11 03:07:49;;;;;;;25.85;12.70;;;;;;;7.68;100.00;99344.38;4963208;28;20433;-54
2021/03/11 03:10:17;;;;;;;20.80;13.00;;;;;;;7.79;100.00;99335.97;4964296;28;20382;-52
2021/03/11 03:12:45;;;;;;;20.63;11.68;;;;;;;7.89;100.00;99325.91;4966009;28;20050;-57
2021/03/11 03:15:13;;;;;;;22.75;11.48;;;;;;;7.86;100.00;99328.94;4964371;28;20351;-57
2021/03/11 03:17:44;;;;;;;23.27;10.27;;;;;;;7.90;100.00;99311.63;4962497;28;20386;-57
2021/03/11 03:20:13;;;;;;;21.75;10.70;;;;;;;8.01;100.00;99322.78;4969822;28;20098;-58
2021/03/11 03:22:41;;;;;;;20.10;10.70;;;;;;;8.00;100.00;99326.47;4967154;28;20042;-56
2021/03/11 03:25:09;;;;;;;18.33;10.32;;;;;;;7.98;100.00;99308.06;4964804;28;20061;-55
2021/03/11 03:27:36;;;;;;;20.75;11.82;;;;;;;8.05;100.00;99298.34;4963823;28;20043;-56
2021/03/11 03:30:06;;;;;;;21.30;11.52;;;;;;;8.00;100.00;99290.06;4964504;28;20047;-58
2021/03/11 03:32:33;;;;;;;18.25;10.02;;;;;;;8.13;100.00;99291.28;4966818;28;20051;-57
2021/03/11 03:35:01;;;;;;;20.23;10.63;;;;;;;8.10;100.00;99252.56;4964679;28;20061;-57
2021/03/11 03:37:27;;;;;;;20.63;10.82;;;;;;;8.13;100.00;99246.88;4963056;28;20043;-56
2021/03/11 03:39:55;;;;;;;18.95;9.60;;;;;;;8.22;100.00;99231.66;4966220;28;20047;-54
2021/03/11 03:42:22;;;;;;;18.95;10.05;;;;;;;8.21;100.00;99238.81;4964471;28;20389;-57
2021/03/11 03:44:50;;;;;;;18.85;9.43;;;;;;;8.22;100.00;99221.84;4964865;28;20049;-57
2021/03/11 03:47:17;;;;;;;18.40;10.77;;;;;;;8.25;100.00;99208.19;4961005;28;20054;-56
2021/03/11 03:49:44;;;;;;;16.20;9.82;;;;;;;8.29;100.00;99211.25;4967311;28;20434;-57
2021/03/11 03:52:12;;;;;;;17.55;9.57;;;;;;;8.28;100.00;99204.31;4959955;28;20055;-57
2021/03/11 03:54:40;;;;;;;13.40;7.95;;;;;;;8.35;100.00;99199.91;4965537;28;20058;-52
2021/03/11 03:57:12;;;;;;;17.88;9.63;;;;;;;8.36;100.00;99192.72;4962832;28;20567;-57
2021/03/11 03:59:40;;;;;;;16.83;9.10;;;;;;;8.31;100.00;99193.31;4968893;28;20272;-57
2021/03/11 04:02:08;;;;;;;16.25;9.45;;;;;;;8.45;100.00;99202.28;4968455;28;20057;-58
2021/03/11 04:04:38;;;;;;;17.00;8.63;;;;;;;8.49;100.00;99192.06;4969404;28;20227;-57
2021/03/11 04:07:09;;;;;;;15.57;8.82;;;;;;;8.49;100.00;99190.25;4966554;28;20039;-57
2021/03/11 04:09:38;;;;;;;14.23;8.45;;;;;;;8.56;100.00;99195.63;4969857;28;20881;-57
2021/03/11 04:12:06;;;;;;;15.20;8.13;;;;;;;8.60;100.00;99189.75;4970836;28;20554;-55
2021/03/11 04:14:36;;;;;;;16.20;8.23;;;;;;;8.58;100.00;99181.13;4967871;28;20031;-58
2021/03/11 04:17:03;;;;;;;15.07;8.35;;;;;;;8.56;100.00;99172.53;4967417;28;20063;-56
2021/03/11 04:19:31;;;;;;;19.00;9.07;;;;;;;8.58;100.00;99183.78;4969419;28;20053;-55
2021/03/11 04:21:58;;;;;;;13.88;7.15;;;;;;;8.74;100.00;99179.22;4969792;28;20042;-58
2021/03/11 04:24:25;;;;;;;13.70;7.28;;;;;;;8.75;100.00;99155.06;4967770;28;20046;-57
2021/03/11 04:26:52;;;;;;;13.50;8.35;;;;;;;8.77;100.00;99157.53;4967617;28;20058;-58
2021/03/11 04:29:19;;;;;;;15.10;7.22;;;;;;;8.85;100.00;99154.75;4969770;28;20045;-57
2021/03/11 04:31:47;;;;;;;13.35;7.18;;;;;;;8.93;100.00;99157.28;4968510;28;20047;-57
2021/03/11 04:34:14;;;;;;;12.13;6.68;;;;;;;9.10;100.00;99171.13;4968872;28;20046;-56
2021/03/11 04:36:41;;;;;;;13.20;6.95;;;;;;;9.15;100.00;99177.72;4965926;28;20046;-57
2021/03/11 04:39:08;;;;;;;13.38;7.32;;;;;;;9.11;100.00;99140.81;4969336;28;20366;-57
2021/03/11 04:41:35;;;;;;;10.88;6.85;;;;;;;9.11;100.00;99163.94;4967299;28;20159;-57
2021/03/11 04:44:03;;;;;;;10.80;7.32;;;;;;;9.11;100.00;99153.28;4969897;28;20050;-57
2021/03/11 04:46:30;;;;;;;12.85;6.35;;;;;;;9.08;100.00;99143.03;4966094;28;20047;-57
2021/03/11 04:49:02;;;;;;;9.57;6.03;;;;;;;9.21;100.00;99148.44;4966570;28;20047;-56
2021/03/11 04:51:30;;;;;;;11.55;6.30;;;;;;;9.22;100.00;99141.28;4967593;28;20038;-57
2021/03/11 04:53:57;;;;;;;9.98;5.97;;;;;;;9.30;100.00;99109.19;4965395;28;20039;-57
2021/03/11 04:56:25;;;;;;;10.10;6.43;;;;;;;9.27;100.00;99126.38;4963783;28;20050;-56
2021/03/11 04:58:52;;;;;;;10.75;6.65;;;;;;;9.27;100.00;99146.84;4970274;28;20065;-56
2021/03/11 05:01:21;;;;;;;10.20;6.07;;;;;;;9.24;100.00;99140.09;4967928;28;20460;-57
2021/03/11 05:03:49;;;;;;;8.10;5.53;;;;;;;9.26;100.00;99171.84;4969169;28;20093;-57
2021/03/11 05:06:17;;;;;;;10.13;5.47;;;;;;;9.22;100.00;99149.28;4968564;28;20038;-53
2021/03/11 05:08:45;;;;;;;14.63;6.65;;;;;;;9.17;100.00;99125.91;4967051;28;20134;-55
2021/03/11 05:11:12;;;;;;;10.98;5.25;;;;;;;9.21;100.00;99128.97;4964925;28;20042;-56
2021/03/11 05:13:39;;;;;;;11.95;6.80;;;;;;;8.99;100.00;99139.69;4967659;28;20038;-57
2021/03/11 05:16:06;;;;;;;11.38;6.38;;;;;;;8.87;100.00;99104.78;4969067;28;20051;-58
2021/03/11 05:18:33;;;;;;;12.80;6.90;;;;;;;8.78;100.00;99109.44;4963312;28;20039;-55
2021/03/11 05:21:00;;;;;;;11.13;7.25;;;;;;;8.77;100.00;99114.94;4969291;28;20043;-55
2021/03/11 05:23:28;;;;;;;12.25;7.22;;;;;;;8.76;100.00;99123.94;4968717;28;20050;-56
2021/03/11 05:25:55;;;;;;;14.27;7.20;;;;;;;8.74;100.00;99121.47;4965501;28;20066;-55
2021/03/11 05:28:22;;;;;;;14.20;7.25;;;;;;;8.77;100.00;99109.63;4964177;28;20073;-56
2021/03/11 05:30:49;;;;;;;11.27;6.72;;;;;;;8.85;100.00;99093.53;4969536;28;20045;-54
2021/03/11 05:33:16;;;;;;;12.75;7.38;;;;;;;8.90;100.00;99109.75;4968797;28;20031;-56
2021/03/11 05:35:44;;;;;;;11.98;6.10;;;;;;;8.91;100.00;99108.72;4967214;28;20047;-56
2021/03/11 05:38:11;;;;;;;14.55;6.38;;;;;;;8.94;100.00;99100.34;4967876;28;20089;-59
2021/03/11 05:40:40;;;;;;;12.20;5.95;;;;;;;8.94;100.00;99111.00;4967916;28;20395;-59
2021/03/11 05:43:08;;;;;;;10.75;5.95;;;;;;;8.95;100.00;99120.63;4965775;28;20043;-60
2021/03/11 05:45:36;;;;;;;11.45;6.07;;;;;;;8.90;100.00;99141.69;4966333;28;20049;-60
2021/03/11 05:48:03;;;;;;;10.73;6.57;;;;;;;8.90;100.00;99133.69;4963571;28;20142;-60
2021/03/11 05:50:30;;;;;;;13.00;7.45;;;;;;;8.85;100.00;99112.16;4967624;28;20035;-60
2021/03/11 05:52:57;;;;;;;11.63;6.75;;;;;;;8.85;100.00;99112.16;4966777;28;20062;-60
2021/03/11 05:55:25;;;;;;;12.35;6.53;;;;;;;8.83;100.00;99119.53;4964732;28;20053;-60
2021/03/11 05:57:53;;;;;;;11.18;5.95;;;;;;;8.94;100.00;99115.50;4964621;28;20054;-60
2021/03/11 06:00:21;;;;;;;11.45;7.28;;;;;;;8.93;100.00;99109.34;4968679;28;20058;-59
2021/03/11 06:02:56;;;;;;;14.52;7.72;;;;;;;8.98;100.00;99118.59;4965302;28;20050;-60
2021/03/11 06:05:24;;;;;;;15.05;9.02;;;;;;;9.03;100.00;99113.50;4965101;28;20035;-60
2021/03/11 06:07:51;;;;;;;13.85;8.85;;;;;;;9.10;100.00;99101.03;4962087;28;20093;-60
2021/03/11 06:10:19;;;;;;;13.98;7.93;;;;;;;9.06;100.00;99113.94;4968668;28;20061;-60
2021/03/11 06:12:47;;;;;;;12.65;6.97;;;;;;;9.10;100.00;99115.19;4965072;28;20057;-60
2021/03/11 06:15:21;;;;;;;8.40;4.80;;;;;;;9.34;100.00;99120.25;4964616;28;20054;-59
2021/03/11 06:17:48;;;;;;;8.73;4.20;;;;;;;9.23;100.00;99090.50;4962734;28;20046;-59
2021/03/11 06:20:15;;;;;;;8.50;4.50;;;;;;;9.09;100.00;99096.75;4966971;28;20347;-59
2021/03/11 06:22:42;;;;;;;6.47;4.22;;;;;;;9.07;100.00;99109.44;4964469;28;20039;-59
2021/03/11 06:25:10;;;;;;;8.40;4.15;;;;;;;9.15;100.00;99111.94;4968810;28;20074;-60
2021/03/11 06:27:39;;;;;;;10.25;4.10;;;;;;;9.12;100.00;99113.16;4961582;28;20039;-59
2021/03/11 06:30:07;;;;;;;10.43;5.47;;;;;;;9.15;100.00;99114.59;4966703;28;20039;-59
2021/03/11 06:32:53;;;;;;;7.78;4.20;;;;;;;9.27;100.00;99110.38;4961684;28;20655;-60
2021/03/11 06:35:20;;;;;;;7.63;4.68;;;;;;;9.37;100.00;99091.38;4968049;28;20446;-59
2021/03/11 06:37:48;;;;;;;6.43;3.40;;;;;;;9.35;100.00;99073.94;4964561;28;20039;-59
2021/03/11 06:40:17;;;;;;;7.25;4.28;;;;;;;9.51;100.00;99083.44;4967441;28;20122;-60
2021/03/11 06:42:44;;;;;;;8.02;3.40;;;;;;;9.57;100.00;99096.81;4964398;28;20105;-59
2021/03/11 06:45:25;;;;;;;8.35;3.03;;;;;;;9.58;100.00;99095.78;4965480;28;20058;-60
2021/03/11 06:48:14;;;;;;;8.00;4.10;;;;;;;9.57;100.00;99098.63;4960466;28;20043;-60
2021/03/11 06:50:41;;;;;;;9.68;3.40;;;;;;;9.70;100.00;99093.38;4963994;28;20042;-60
2021/03/11 06:53:08;;;;;;;9.18;2.83;;;;;;;9.64;100.00;99104.84;4964128;28;20042;-60
2021/03/11 06:55:36;;;;;;;6.15;2.63;;;;;;;9.83;100.00;99105.91;4964498;28;20043;-59
2021/03/11 06:58:20;;;;;;;4.65;2.28;;;;;;;9.93;100.00;99097.53;4963821;28;20175;-60
2021/03/11 07:00:49;;;;;;;6.32;3.17;;;;;;;9.89;100.00;99110.44;4965131;28;20431;-60
2021/03/11 07:03:17;;;;;;;5.95;2.28;;;;;;;9.98;100.00;99095.91;4965299;28;20045;-59
2021/03/11 07:05:45;;;;;;;6.40;2.75;;;;;;;9.98;100.00;99085.25;4965905;28;20132;-60
2021/03/11 07:08:14;;;;;;;12.95;3.53;;;;;;;10.16;100.00;99108.69;4962306;28;20042;-59
2021/03/11 07:10:42;;;;;;;11.90;2.67;;;;;;;10.19;100.00;99096.75;4962000;28;20043;-58
2021/03/11 07:13:09;;;;;;;7.25;3.05;;;;;;;10.25;100.00;99109.31;4966050;28;20047;-56
2021/03/11 07:15:38;;;;;;;12.88;3.60;;;;;;;10.14;100.00;99125.91;4966481;28;20066;-57
2021/03/11 07:18:07;;;;;;;17.45;5.07;;;;;;;10.14;100.00;99105.38;4962538;28;20459;-55
2021/03/11 07:20:35;;;;;;;18.75;5.07;;;;;;;10.21;100.00;99141.94;4965627;28;20335;-56
2021/03/11 07:23:08;;;;;;;17.13;4.40;;;;;;;10.23;100.00;99094.53;4962558;28;20434;-57
2021/03/11 07:25:36;;;;;;;15.00;4.47;;;;;;;10.47;100.00;99117.97;4964784;28;20077;-59
2021/03/11 07:28:06;;;;;;;25.17;7.47;;;;;;;10.30;100.00;99116.69;4960745;28;20045;-57
2021/03/11 07:30:49;;;;;;;22.63;5.97;;;;;;;10.34;100.00;99121.44;4961017;28;20074;-55
2021/03/11 07:33:18;;;;;;;21.35;5.28;;;;;;;10.41;100.00;99126.81;4961963;28;20371;-57
2021/03/11 07:35:47;;;;;;;22.60;5.40;;;;;;;10.37;100.00;99127.44;4964170;28;20077;-56
2021/03/11 07:38:17;;;;;;;25.02;5.60;;;;;;;10.31;100.00;99084.47;4963639;28;20056;-57
2021/03/11 07:40:46;;;;;;;23.75;5.78;;;;;;;10.46;100.00;99144.88;4969121;28;20039;-55
2021/03/11 07:43:13;;;;;;;20.50;5.45;;;;;;;10.75;100.00;99110.81;4969294;28;20050;-56
2021/03/11 07:45:41;;;;;;;33.55;9.07;;;;;;;10.57;100.00;99125.59;4966894;28;20061;-57
2021/03/11 07:48:09;;;;;;;21.98;5.88;;;;;;;10.71;100.00;99152.31;4965537;28;20953;-56
2021/03/11 07:50:37;;;;;;;30.00;7.70;;;;;;;10.95;100.00;99159.69;4969075;28;20502;-56
2021/03/11 07:53:05;;;;;;;31.90;7.55;;;;;;;10.77;100.00;99127.44;4967284;28;20050;-56
2021/03/11 07:55:33;;;;;;;23.15;5.22;;;;;;;10.65;100.00;99112.03;4969323;28;20043;-56
2021/03/11 07:58:03;;;;;;;18.20;6.35;;;;;;;10.65;100.00;99156.63;4965697;28;20131;-57
2021/03/11 08:00:30;;;;;;;26.25;6.88;;;;;;;10.69;100.00;99139.16;4965517;28;20043;-57
2021/03/11 08:02:59;;;;;;;21.75;6.85;;;;;;;10.67;100.00;99174.06;4967760;28;20085;-57
2021/03/11 08:05:28;;;;;;;31.02;6.88;;;;;;;10.76;100.00;99150.66;4968237;28;20038;-56
2021/03/11 08:08:17;;;;;;;23.10;6.78;;;;;;;10.85;100.00;99137.94;4963694;28;20348;-56
2021/03/11 08:10:48;;;;;;;23.20;6.35;;;;;;;10.98;100.00;99140.56;4965007;28;20070;-57
2021/03/11 08:13:31;;;;;;;23.20;5.85;;;;;;;11.21;100.00;99160.69;4968096;28;20372;-56
2021/03/11 08:15:59;;;;;;;29.60;6.47;;;;;;;11.07;100.00;99125.19;4964999;28;20045;-56
2021/03/11 08:18:43;;;;;;;30.70;7.03;;;;;;;11.05;100.00;99123.75;4966781;28;20049;-55
2021/03/11 08:21:45;;;;;;;21.02;6.70;;;;;;;11.12;100.00;99112.00;4966986;28;20046;-56
2021/03/11 08:24:41;;;;;;;25.48;7.40;;;;;;;10.93;100.00;99076.28;4968482;28;20051;-56
2021/03/11 08:27:43;;;;;;;20.67;5.43;;;;;;;11.15;100.00;99149.00;4966360;28;20077;-57
2021/03/11 08:30:50;;;;;;;24.40;7.93;;;;;;;11.33;100.00;99156.38;4968921;28;20300;-57
2021/03/11 08:33:43;;;;;;;16.05;4.93;;;;;;;11.23;100.00;99123.91;4965200;28;20353;-57
2021/03/11 08:36:33;;;;;;;19.23;4.90;;;;;;;11.21;100.00;99120.63;4964899;28;20050;-55
2021/03/11 08:39:01;;;;;;;24.73;6.20;;;;;;;11.11;100.00;99141.59;4966618;28;20199;-56
2021/03/11 08:41:32;;;;;;;26.73;5.72;;;;;;;11.00;100.00;99129.69;4968168;28;20039;-57
2021/03/11 08:44:02;;;;;;;20.33;6.10;;;;;;;11.08;100.00;99150.03;4969095;28;20034;-56
2021/03/11 08:46:50;;;;;;;17.15;6.43;;;;;;;11.22;100.00;99161.53;4965957;28;20039;-55
2021/03/11 08:49:37;;;;;;;26.63;7.00;;;;;;;11.16;100.00;99123.09;4967697;28;20053;-57
2021/03/11 08:52:05;;;;;;;17.17;4.25;;;;;;;11.00;100.00;99066.41;4965794;28;20110;-57
2021/03/11 08:54:32;;;;;;;29.05;6.30;;;;;;;10.91;100.00;99157.66;4965709;28;20117;-56
2021/03/11 08:57:00;;;;;;;30.38;6.07;;;;;;;11.00;100.00;99135.88;4963676;28;20121;-57
2021/03/11 08:59:47;;;;;;;28.15;7.22;;;;;;;11.28;100.00;99121.41;4966683;28;20055;-57
2021/03/11 09:02:32;;;;;;;26.77;6.32;;;;;;;11.52;100.00;99149.34;4969128;28;20042;-57
2021/03/11 09:04:59;;;;;;;30.23;6.18;;;;;;;11.54;100.00;99146.47;4964362;28;20050;-55
2021/03/11 09:07:32;;;;;;;24.70;7.10;;;;;;;11.70;100.00;99162.03;4962591;28;20103;-55
2021/03/11 09:10:00;;;;;;;16.08;4.35;;;;;;;11.51;100.00;99154.88;4968824;28;20093;-58
2021/03/11 09:12:36;;;;;;;26.85;6.90;;;;;;;11.66;100.00;99165.34;4966587;28;20077;-55
2021/03/11 09:15:05;;;;;;;18.33;4.35;;;;;;;11.43;100.00;99141.75;4962376;28;20431;-57
2021/03/11 09:17:34;;;;;;;22.63;6.28;;;;;;;11.75;100.00;99164.09;4963942;28;20054;-57
2021/03/11 09:20:04;;;;;;;17.30;4.60;;;;;;;11.93;100.00;99157.22;4965168;28;20076;-56
2021/03/11 09:22:32;;;;;;;14.80;4.18;;;;;;;11.93;100.00;99143.84;4963762;28;20423;-57
2021/03/11 09:25:13;;;;;;;27.55;7.78;;;;;;;11.83;100.00;99161.16;4967336;28;20045;-58
2021/03/11 09:27:52;;;;;;;22.13;6.47;;;;;;;11.67;100.00;99162.44;4963035;28;20078;-57
2021/03/11 09:30:25;;;;;;;18.58;5.63;;;;;;;11.74;100.00;99173.13;4964914;28;20673;-57
2021/03/11 09:32:52;;;;;;;19.48;5.50;;;;;;;12.00;100.00;99166.88;4966244;28;20046;-58
2021/03/11 09:35:20;;;;;;;29.83;7.57;;;;;;;11.56;100.00;99050.81;4963291;28;20074;-58
2021/03/11 09:37:52;;;;;;;27.23;6.53;;;;;;;11.91;100.00;99186.84;4960003;28;20046;-57
2021/03/11 09:40:37;;;;;;;23.95;6.35;;;;;;;11.60;100.00;99167.00;4964327;28;20054;-57
2021/03/11 09:43:25;;;;;;;19.48;5.72;;;;;;;11.60;100.00;99172.34;4963822;28;20067;-56
2021/03/11 09:45:53;;;;;;;21.98;5.22;;;;;;;11.53;100.00;99192.94;4961521;28;20383;-58
2021/03/11 09:48:23;;;;;;;21.90;6.25;;;;;;;11.42;100.00;99197.06;4961432;28;20050;-58
2021/03/11 09:51:02;;;;;;;19.40;4.18;;;;;;;11.34;100.00;99230.19;4962474;28;20042;-58
2021/03/11 09:53:40;;;;;;;12.45;3.92;;;;;;;10.99;100.00;99192.97;4963039;28;20528;-57
2021/03/11 09:56:10;;;;;;;19.05;5.93;;;;;;;11.16;100.00;99171.19;4966875;28;20050;-57
2021/03/11 09:58:43;;;;;;;11.02;3.58;;;;;;;11.14;100.00;99192.78;4964262;28;20225;-56
2021/03/11 10:01:10;;;;;;;14.68;3.97;;;;;;;10.95;100.00;99162.38;4964580;28;20043;-57
2021/03/11 10:03:37;;;;;;;14.25;3.50;;;;;;;10.90;100.00;99092.75;4961405;28;20043;-58
2021/03/11 10:06:06;;;;;;;14.75;3.83;;;;;;;10.61;100.00;99222.91;4963072;28;20043;-57
2021/03/11 10:08:36;;;;;;;13.30;3.95;;;;;;;11.20;100.00;99194.63;4961312;28;20038;-57
2021/03/11 10:11:08;;;;;;;19.17;4.88;;;;;;;11.13;100.00;99209.84;4964658;28;20062;-58
2021/03/11 10:13:46;;;;;;;15.57;4.32;;;;;;;11.58;100.00;99243.94;4963102;28;20034;-57
2021/03/11 10:16:14;;;;;;;20.30;6.07;;;;;;;11.28;100.00;99168.72;4962657;28;20117;-58
2021/03/11 10:19:02;;;;;;;23.77;6.88;;;;;;;11.17;100.00;99138.94;4960316;28;20546;-58
2021/03/11 10:21:30;;;;;;;10.40;4.10;;;;;;;11.58;100.00;99211.84;4964703;28;20038;-58
2021/03/11 10:23:57;;;;;;;19.63;5.50;;;;;;;11.65;100.00;99191.25;4965592;28;20474;-58
2021/03/11 10:26:26;;;;;;;18.30;4.35;;;;;;;12.39;100.00;99215.91;4965914;28;20050;-58
2021/03/11 10:29:02;;;;;;;13.38;3.80;;;;;;;12.10;100.00;99193.19;4966197;28;20046;-58
2021/03/11 10:31:30;;;;;;;17.48;4.32;;;;;;;11.42;100.00;99188.22;4963965;28;20043;-58
2021/03/11 10:34:01;;;;;;;22.60;5.45;;;;;;;11.46;100.00;99176.91;4965403;28;20035;-58
2021/03/11 10:36:28;;;;;;;18.75;5.30;;;;;;;11.78;100.00;99197.59;4959389;28;20429;-57
2021/03/11 10:39:07;;;;;;;26.63;6.53;;;;;;;12.08;100.00;99173.84;4966026;28;20047;-57
2021/03/11 10:41:36;;;;;;;21.70;4.95;;;;;;;12.25;100.00;99198.28;4964724;28;20069;-60
2021/03/11 10:44:11;;;;;;;25.35;6.07;;;;;;;12.15;100.00;99211.28;4964004;28;20047;-58
2021/03/11 10:46:38;;;;;;;13.38;4.43;;;;;;;11.61;100.00;99222.13;4961494;28;20046;-57
2021/03/11 10:49:06;;;;;;;16.15;4.05;;;;;;;11.64;100.00;99218.22;4965630;28;20043;-60
2021/03/11 10:51:33;;;;;;;23.02;5.30;;;;;;;12.19;100.00;99229.38;4962875;28;20057;-58
2021/03/11 10:54:01;;;;;;;10.93;3.60;;;;;;;12.22;100.00;99217.44;4963483;28;20034;-57
2021/03/11 10:56:28;;;;;;;17.20;4.45;;;;;;;12.89;100.00;99227.75;4963212;28;20043;-58
2021/03/11 10:59:06;;;;;;;18.33;5.53;;;;;;;12.01;100.00;99194.47;4964810;28;20594;-58
2021/03/11 11:01:35;;;;;;;17.80;4.57;;;;;;;13.43;100.00;99212.91;4962810;28;20461;-57
2021/03/11 11:04:03;;;;;;;16.92;4.93;;;;;;;12.04;100.00;99169.97;4962209;28;20065;-58
2021/03/11 11:06:31;;;;;;;15.40;4.82;;;;;;;12.07;100.00;99215.00;4961203;28;20046;-58
2021/03/11 11:08:58;;;;;;;20.42;6.10;;;;;;;12.28;100.00;99215.75;4964021;28;20042;-58
2021/03/11 11:11:25;;;;;;;16.08;5.70;;;;;;;11.91;100.00;99232.34;4966582;28;20047;-57
2021/03/11 11:13:53;;;;;;;14.13;3.03;;;;;;;11.98;100.00;99230.50;4971147;28;20166;-58
2021/03/11 11:16:21;;;;;;;13.38;3.45;;;;;;;12.24;100.00;99244.78;4965493;28;20051;-58
2021/03/11 11:18:48;;;;;;;17.95;4.20;;;;;;;12.61;100.00;99237.00;4948134;28;20344;-58
2021/03/11 11:21:16;;;;;;;15.40;4.55;;;;;;;12.17;100.00;99185.13;4967137;28;20035;-58
2021/03/11 11:23:44;;;;;;;11.73;3.95;;;;;;;12.67;100.00;99241.50;4972581;28;20053;-58
2021/03/11 11:26:11;;;;;;;16.55;3.47;;;;;;;13.24;100.00;99252.22;4970862;28;20035;-59
2021/03/11 11:28:38;;;;;;;16.83;4.60;;;;;;;11.93;100.00;99211.53;4966026;28;20050;-58
2021/03/11 11:31:05;;;;;;;27.27;5.25;;;;;;;11.45;100.00;99268.00;4967083;28;20057;-56
2021/03/11 11:33:32;;;;;;;21.60;6.00;;;;;;;11.22;100.00;99218.47;4971070;28;20045;-58